M I D A S
Marine Information and Data Acquisition System
Tripno 1085 of the Zeeleeuw from 2006-05-17 11:36:38 to 2006-05-17 14:26:43
Back to CruiseResearch ActivitiesStationsMapUnderway DataData graphs

EquipmentUnitsComment
TimeDGPSUTC
LatitudeDGPSDM.mWGS84
LongitudeDGPSDM.mWGS84
HeadingGyrodeg 
SOGDGPSknotsSpeed over ground
COGDGPSdegCourse over ground
DepthEcho soundermeters200 kHz
Missing or incorrect values are displayed as -999
Navigation data collected by the RV Zeeleeuw from 2006-05-17 07:17:38 to 2006-05-17 14:41:29
                                                                                    Next 1000 lines
Time Latitude Longitude Heading SOG COG Depth
2006-05-17 07:17:48 51°13.603 2°56.099 126.9 0.2 133 5
2006-05-17 07:17:54 51°13.603 2°56.099 127.1 0.1 19 4.9
2006-05-17 07:17:58 51°13.603 2°56.099 127 0.1 11 4.9
2006-05-17 07:18:03 51°13.603 2°56.099 126.3 -999 321 4.8
2006-05-17 07:18:08 51°13.603 2°56.099 126.1 -999 132 4.8
2006-05-17 07:18:14 51°13.603 2°56.099 126.1 -999 168 -999
2006-05-17 07:18:18 51°13.603 2°56.099 126.1 -999 181 4.8
2006-05-17 07:18:23 51°13.603 2°56.099 126.2 0.1 29 4.9
2006-05-17 07:18:28 51°13.603 2°56.099 126.2 -999 267 4.9
2006-05-17 07:18:33 51°13.603 2°56.099 126.2 -999 212 4.8
2006-05-17 07:18:38 51°13.603 2°56.099 126.3 -999 7 5
2006-05-17 07:18:44 51°13.603 2°56.099 126.4 -999 60 -999
2006-05-17 07:18:49 51°13.603 2°56.099 126.4 -999 192 -999
2006-05-17 07:18:53 51°13.603 2°56.099 126.4 -999 37 5.1
2006-05-17 07:18:58 51°13.603 2°56.099 126.4 -999 36 -999
2006-05-17 07:19:04 51°13.603 2°56.099 126.4 -999 62 4.8
2006-05-17 07:19:08 51°13.603 2°56.099 126.4 -999 206 4.8
2006-05-17 07:19:12 51°13.603 2°56.099 126.4 -999 195 4.8
2006-05-17 07:19:18 51°13.603 2°56.099 126.4 -999 349 4.8
2006-05-17 07:19:24 51°13.603 2°56.099 126.4 -999 312 4.8
2006-05-17 07:19:27 51°13.603 2°56.099 126.4 -999 28 4.8
2006-05-17 07:19:34 51°13.603 2°56.099 126.4 -999 269 4.8
2006-05-17 07:19:38 51°13.603 2°56.099 126.4 -999 7 4.9
2006-05-17 07:19:43 51°13.603 2°56.099 126.5 -999 39 4.9
2006-05-17 07:19:48 51°13.603 2°56.099 126.6 -999 111 4.9
2006-05-17 07:19:54 51°13.603 2°56.099 126.6 -999 12 5
2006-05-17 07:19:58 51°13.603 2°56.099 126.6 -999 29 -999
2006-05-17 07:20:04 51°13.603 2°56.099 126.6 -999 279 -999
2006-05-17 07:20:09 51°13.603 2°56.099 126.7 -999 181 -999
2006-05-17 07:20:14 51°13.603 2°56.099 126.7 -999 25 5
2006-05-17 07:20:19 51°13.603 2°56.099 126.7 -999 359 -999
2006-05-17 07:20:24 51°13.603 2°56.099 126.7 -999 187 -999
2006-05-17 07:20:29 51°13.603 2°56.099 126.7 -999 178 -999
2006-05-17 07:20:34 51°13.603 2°56.099 126.7 -999 37 4.9
2006-05-17 07:20:38 51°13.603 2°56.099 126.7 -999 206 -999
2006-05-17 07:20:44 51°13.604 2°56.099 126.7 -999 21 -999
2006-05-17 07:20:49 51°13.604 2°56.098 126.7 -999 319 4.9
2006-05-17 07:20:54 51°13.604 2°56.098 126.7 -999 304 -999
2006-05-17 07:20:59 51°13.603 2°56.098 126.8 -999 270 4.9
2006-05-17 07:21:04 51°13.603 2°56.098 126.9 -999 213 4.9
2006-05-17 07:21:08 51°13.603 2°56.098 127 -999 185 4.9
2006-05-17 07:21:13 51°13.603 2°56.098 127.1 -999 28 -999
2006-05-17 07:21:18 51°13.603 2°56.098 127.1 -999 24 5.1
2006-05-17 07:21:24 51°13.603 2°56.098 127 -999 170 -999
2006-05-17 07:21:28 51°13.603 2°56.098 127 -999 135 4.9
2006-05-17 07:21:34 51°13.603 2°56.098 127 -999 148 4.9
2006-05-17 07:21:38 51°13.603 2°56.098 126.9 -999 195 -999
2006-05-17 07:21:44 51°13.603 2°56.098 126.9 -999 335 -999
2006-05-17 07:21:49 51°13.603 2°56.098 126.8 -999 320 4.8
2006-05-17 07:21:54 51°13.603 2°56.098 126.8 -999 214 4.9
2006-05-17 07:21:58 51°13.603 2°56.098 127 -999 166 4.9
2006-05-17 07:22:03 51°13.603 2°56.098 127 -999 191 4.9
2006-05-17 07:22:09 51°13.603 2°56.098 127.1 -999 27 4.8
2006-05-17 07:22:14 51°13.603 2°56.098 127.1 -999 48 4.8
2006-05-17 07:22:18 51°13.603 2°56.098 127.1 -999 48 -999
2006-05-17 07:22:23 51°13.603 2°56.098 127 -999 26 4.8
2006-05-17 07:22:28 51°13.603 2°56.098 127 -999 194 4.8
2006-05-17 07:22:34 51°13.603 2°56.098 127 -999 210 4.8
2006-05-17 07:22:38 51°13.603 2°56.099 126.9 -999 49 4.8
2006-05-17 07:22:42 51°13.603 2°56.098 126.9 -999 37 4.8
2006-05-17 07:22:48 51°13.603 2°56.098 126.9 -999 44 4.8
2006-05-17 07:22:54 51°13.603 2°56.099 126.9 -999 205 4.8
2006-05-17 07:22:58 51°13.603 2°56.099 126.9 -999 338 4.8
2006-05-17 07:23:04 51°13.603 2°56.099 126.9 -999 353 -999
2006-05-17 07:23:08 51°13.603 2°56.099 126.9 -999 29 4.8
2006-05-17 07:23:13 51°13.603 2°56.099 126.9 -999 179 4.8
2006-05-17 07:23:18 51°13.603 2°56.099 126.9 -999 326 4.8
2006-05-17 07:23:23 51°13.603 2°56.099 126.9 -999 206 4.8
2006-05-17 07:23:27 51°13.603 2°56.098 126.9 -999 243 4.8
2006-05-17 07:23:33 51°13.603 2°56.098 126.9 -999 8 4.8
2006-05-17 07:23:38 51°13.603 2°56.098 126.9 -999 23 4.8
2006-05-17 07:23:44 51°13.603 2°56.098 126.9 -999 198 4.8
2006-05-17 07:23:48 51°13.603 2°56.098 126.9 -999 167 4.8
2006-05-17 07:23:54 51°13.603 2°56.098 126.9 -999 272 4.8
2006-05-17 07:23:58 51°13.603 2°56.098 127 -999 216 4.8
2006-05-17 07:24:02 51°13.603 2°56.099 127 -999 110 4.7
2006-05-17 07:24:08 51°13.603 2°56.099 127 -999 272 4.7
2006-05-17 07:24:14 51°13.603 2°56.099 127 -999 7 -999
2006-05-17 07:24:18 51°13.603 2°56.099 127 -999 176 4.7
2006-05-17 07:24:24 51°13.603 2°56.099 127 -999 92 -999
2006-05-17 07:24:28 51°13.603 2°56.099 127 -999 27 4.9
2006-05-17 07:24:32 51°13.603 2°56.099 126.9 -999 56 4.7
2006-05-17 07:24:39 51°13.603 2°56.099 126.8 -999 62 -999
2006-05-17 07:24:44 51°13.603 2°56.099 126.8 -999 264 4.7
2006-05-17 07:24:48 51°13.603 2°56.099 126.9 -999 106 4.8
2006-05-17 07:24:54 51°13.603 2°56.099 127 -999 123 4.8
2006-05-17 07:24:58 51°13.603 2°56.099 127 -999 59 4.8
2006-05-17 07:25:03 51°13.603 2°56.099 126.9 0.1 87 4.7
2006-05-17 07:25:08 51°13.603 2°56.099 126.2 0.1 163 4.7
2006-05-17 07:25:14 51°13.603 2°56.099 125.5 -999 181 4.8
2006-05-17 07:25:18 51°13.603 2°56.099 124.9 0.1 181 4.7
2006-05-17 07:25:24 51°13.603 2°56.099 124.3 -999 174 -999
2006-05-17 07:25:28 51°13.603 2°56.099 123.7 -999 182 4.9
2006-05-17 07:25:33 51°13.603 2°56.099 123 -999 172 4.8
2006-05-17 07:25:38 51°13.603 2°56.099 122.4 0.1 202 4.9
2006-05-17 07:25:44 51°13.602 2°56.099 121.7 -999 220 4.9
2006-05-17 07:25:48 51°13.602 2°56.099 121.1 0.1 169 5
2006-05-17 07:25:53 51°13.602 2°56.099 120.4 0.1 204 4.8
2006-05-17 07:25:58 51°13.602 2°56.099 119.6 0.1 194 4.8
2006-05-17 07:26:03 51°13.602 2°56.099 118.7 0.1 193 4.8
2006-05-17 07:26:08 51°13.602 2°56.099 117.8 0.1 195 4.8
2006-05-17 07:26:14 51°13.602 2°56.099 117 0.1 204 4.8
2006-05-17 07:26:18 51°13.602 2°56.099 116.1 0.1 199 4.8
2006-05-17 07:26:23 51°13.602 2°56.099 115.4 0.1 187 5
2006-05-17 07:26:28 51°13.602 2°56.098 114.2 0.1 200 4.9
2006-05-17 07:26:33 51°13.601 2°56.098 113.2 0.1 203 4.7
2006-05-17 07:26:38 51°13.601 2°56.098 112.3 0.1 196 4.7
2006-05-17 07:26:41 51°13.601 2°56.098 111.3 0.1 196 4.7
2006-05-17 07:26:47 51°13.601 2°56.098 110.4 0.1 202 4.6
2006-05-17 07:26:53 51°13.601 2°56.098 109.5 0.1 282 4.7
2006-05-17 07:26:58 51°13.601 2°56.097 108.6 0.2 276 4.7
2006-05-17 07:27:03 51°13.601 2°56.097 108.2 0.4 288 4.7
2006-05-17 07:27:08 51°13.602 2°56.095 107.9 0.7 284 4.7
2006-05-17 07:27:13 51°13.602 2°56.093 107.9 1.1 289 4.8
2006-05-17 07:27:18 51°13.603 2°56.09 108.1 1.4 289 4.9
2006-05-17 07:27:23 51°13.604 2°56.086 108.5 1.7 289 5.5
2006-05-17 07:27:29 51°13.605 2°56.081 109 2 289 -999
2006-05-17 07:27:34 51°13.606 2°56.076 109.7 2.2 290 -999
2006-05-17 07:27:39 51°13.607 2°56.071 110.1 2.4 290 -999
2006-05-17 07:27:44 51°13.608 2°56.065 110.2 2.6 290 6.1
2006-05-17 07:27:49 51°13.609 2°56.059 110.3 2.8 290 -999
2006-05-17 07:27:54 51°13.611 2°56.053 110.4 3 290 -999
2006-05-17 07:27:59 51°13.612 2°56.046 110.4 3.2 289 6.3
2006-05-17 07:28:04 51°13.614 2°56.039 110.4 3.4 289 -999
2006-05-17 07:28:09 51°13.615 2°56.031 110.4 3.6 288 -999
2006-05-17 07:28:14 51°13.617 2°56.024 110.4 3.7 288 -999
2006-05-17 07:28:19 51°13.619 2°56.016 110.5 3.8 288 -999
2006-05-17 07:28:24 51°13.62 2°56.008 111.2 3.9 288 -999
2006-05-17 07:28:29 51°13.622 2°55.999 111.9 3.9 289 -999
2006-05-17 07:28:34 51°13.624 2°55.991 113.1 4 290 -999
2006-05-17 07:28:38 51°13.625 2°55.985 114.5 3.9 290 -999
2006-05-17 07:28:44 51°13.628 2°55.975 115.7 3.9 292 -999
2006-05-17 07:28:49 51°13.63 2°55.968 117.1 3.8 292 -999
2006-05-17 07:28:54 51°13.632 2°55.96 118.5 3.7 294 -999
2006-05-17 07:28:59 51°13.634 2°55.953 119.9 3.7 295 6.1
2006-05-17 07:29:04 51°13.636 2°55.945 121.4 3.8 296 -999
2006-05-17 07:29:09 51°13.639 2°55.938 122.6 3.8 297 6.1
2006-05-17 07:29:14 51°13.641 2°55.93 123.5 3.8 298 -999
2006-05-17 07:29:19 51°13.644 2°55.923 124.5 3.8 299 -999
2006-05-17 07:29:24 51°13.646 2°55.916 125.6 3.9 300 -999
2006-05-17 07:29:29 51°13.649 2°55.908 126.2 3.9 301 -999
2006-05-17 07:29:34 51°13.652 2°55.901 126.9 3.9 301 -999
2006-05-17 07:29:39 51°13.655 2°55.894 127.4 3.9 303 -999
2006-05-17 07:29:44 51°13.658 2°55.886 127.9 3.9 303 -999
2006-05-17 07:29:49 51°13.661 2°55.879 128.4 3.9 304 -999
2006-05-17 07:29:54 51°13.664 2°55.872 128.8 3.9 304 -999
2006-05-17 07:29:59 51°13.667 2°55.865 129 4 304 -999
2006-05-17 07:30:04 51°13.67 2°55.857 129 4.1 306 -999
2006-05-17 07:30:09 51°13.673 2°55.85 129 4.1 306 6.1
2006-05-17 07:30:14 51°13.676 2°55.842 129 4.1 305 -999
2006-05-17 07:30:19 51°13.68 2°55.835 129 4.2 306 -999
2006-05-17 07:30:24 51°13.683 2°55.827 129 4.3 306 -999
2006-05-17 07:30:29 51°13.687 2°55.82 128.6 4.2 306 -999
2006-05-17 07:30:34 51°13.691 2°55.813 128.3 4 306 -999
2006-05-17 07:30:39 51°13.694 2°55.806 127.7 3.8 306 6.1
2006-05-17 07:30:44 51°13.697 2°55.799 127 3.7 305 -999
2006-05-17 07:30:49 51°13.699 2°55.793 126.2 3.6 304 -999
2006-05-17 07:30:54 51°13.702 2°55.786 125.3 3.6 304 4.9
2006-05-17 07:30:58 51°13.704 2°55.781 124.2 3.5 303 9.8
2006-05-17 07:31:03 51°13.707 2°55.775 123.2 3.4 302 4.9
2006-05-17 07:31:08 51°13.709 2°55.768 121.9 3.2 301 4.7
2006-05-17 07:31:14 51°13.711 2°55.761 120.5 3.1 301 -999
2006-05-17 07:31:19 51°13.713 2°55.756 118.9 2.8 300 -999
2006-05-17 07:31:24 51°13.715 2°55.752 116.9 2.4 299 -999
2006-05-17 07:31:29 51°13.716 2°55.748 114.1 2.1 298 -999
2006-05-17 07:31:34 51°13.717 2°55.745 111.7 1.6 298 -999
2006-05-17 07:31:38 51°13.718 2°55.743 109.5 1.3 300 9.9
2006-05-17 07:31:44 51°13.719 2°55.742 107.1 0.7 307 9.9
2006-05-17 07:31:48 51°13.719 2°55.742 103 0.5 319 -999
2006-05-17 07:31:54 51°13.72 2°55.743 97.2 0.4 30 9.9
2006-05-17 07:31:59 51°13.72 2°55.744 91.9 0.7 49 -999
2006-05-17 07:32:04 51°13.721 2°55.746 87.2 1 58 4.6
2006-05-17 07:32:08 51°13.722 2°55.748 81 1.4 58 10
2006-05-17 07:32:13 51°13.723 2°55.751 74.1 1.7 55 4.6
2006-05-17 07:32:19 51°13.725 2°55.755 67.1 1.7 49 10
2006-05-17 07:32:23 51°13.726 2°55.756 60.9 1.4 40 10
2006-05-17 07:32:28 51°13.727 2°55.757 57 0.8 30 5
2006-05-17 07:32:33 51°13.727 2°55.757 54.1 0.4 10 9.9
2006-05-17 07:32:38 51°13.727 2°55.756 49 0.4 282 9.9
2006-05-17 07:32:42 51°13.726 2°55.754 45 1 232 9.9
2006-05-17 07:32:48 51°13.725 2°55.752 41.7 1.4 228 9.9
2006-05-17 07:32:53 51°13.723 2°55.749 39.5 1.5 224 9.9
2006-05-17 07:32:59 51°13.721 2°55.746 36.9 1.6 221 -999
2006-05-17 07:33:04 51°13.719 2°55.744 34.6 1.8 219 6.1
2006-05-17 07:33:09 51°13.717 2°55.741 32.8 1.9 217 -999
2006-05-17 07:33:14 51°13.715 2°55.739 31.5 1.8 215 -999
2006-05-17 07:33:19 51°13.713 2°55.737 30.8 1.6 216 -999
2006-05-17 07:33:24 51°13.712 2°55.735 30.5 1.3 217 -999
2006-05-17 07:33:29 51°13.711 2°55.734 30 0.8 225 -999
2006-05-17 07:33:34 51°13.711 2°55.733 27 0.4 251 -999
2006-05-17 07:33:39 51°13.712 2°55.733 23.7 0.5 330 -999
2006-05-17 07:33:44 51°13.714 2°55.733 18.6 0.9 352 -999
2006-05-17 07:33:49 51°13.716 2°55.732 12.5 1.4 351 -999
2006-05-17 07:33:54 51°13.718 2°55.731 4.6 1.7 350 -999
2006-05-17 07:33:59 51°13.721 2°55.73 358.5 1.8 346 -999
2006-05-17 07:34:04 51°13.723 2°55.729 354 2.1 343 -999
2006-05-17 07:34:09 51°13.727 2°55.727 348.5 2.4 339 -999
2006-05-17 07:34:14 51°13.73 2°55.724 343.4 2.7 335 4.8
2006-05-17 07:34:18 51°13.733 2°55.721 340.8 3.1 333 4.5
2006-05-17 07:34:23 51°13.737 2°55.717 338.9 3.6 333 9.8
2006-05-17 07:34:28 51°13.742 2°55.713 337 3.8 330 9.9
2006-05-17 07:34:33 51°13.747 2°55.708 336 4.2 331 9.3
2006-05-17 07:34:38 51°13.752 2°55.703 335 4.6 329 9.3
2006-05-17 07:34:44 51°13.759 2°55.696 334.5 4.7 330 9.5
2006-05-17 07:34:48 51°13.764 2°55.691 334.5 5 329 9.5
2006-05-17 07:34:53 51°13.771 2°55.685 334.6 5.2 329 9.6
2006-05-17 07:34:58 51°13.777 2°55.679 334.4 5.5 329 9.6
2006-05-17 07:35:03 51°13.784 2°55.672 333.8 5.7 328 9.7
2006-05-17 07:35:08 51°13.791 2°55.665 333.9 5.8 329 9.7
2006-05-17 07:35:13 51°13.798 2°55.659 335.1 6 329 9.7
2006-05-17 07:35:18 51°13.806 2°55.653 335.7 6.1 331 9.7
2006-05-17 07:35:24 51°13.815 2°55.645 335.7 6.3 330 9.7
2006-05-17 07:35:28 51°13.821 2°55.639 335.3 6.4 330 9.7
2006-05-17 07:35:33 51°13.829 2°55.632 335.1 6.5 330 9.7
2006-05-17 07:35:38 51°13.837 2°55.625 335.2 6.6 330 9.7
2006-05-17 07:35:43 51°13.845 2°55.618 336.1 6.6 331 9.7
2006-05-17 07:35:48 51°13.852 2°55.611 336.7 6.6 331 9.7
2006-05-17 07:35:54 51°13.862 2°55.603 336.8 6.4 332 9.7
2006-05-17 07:35:57 51°13.866 2°55.599 337.2 6.3 332 9.7
2006-05-17 07:36:02 51°13.873 2°55.592 338.1 6.1 333 9.7
2006-05-17 07:36:08 51°13.882 2°55.585 339.6 6.1 334 9.8
2006-05-17 07:36:14 51°13.892 2°55.578 340.2 6 334 9.8
2006-05-17 07:36:18 51°13.898 2°55.574 340.4 5.9 335 9.8
2006-05-17 07:36:23 51°13.905 2°55.568 340.4 5.9 334 9.8
2006-05-17 07:36:28 51°13.912 2°55.562 340.4 5.8 335 9.8
2006-05-17 07:36:33 51°13.92 2°55.557 340.9 5.8 335 9.8
2006-05-17 07:36:38 51°13.927 2°55.552 341.2 5.8 336 9.8
2006-05-17 07:36:44 51°13.936 2°55.546 341.7 5.7 336 9.8
2006-05-17 07:36:48 51°13.941 2°55.542 342.1 5.7 336 9.8
2006-05-17 07:36:53 51°13.949 2°55.538 342.3 5.6 337 9.8
2006-05-17 07:36:58 51°13.956 2°55.533 342.3 5.6 337 9.8
2006-05-17 07:37:03 51°13.963 2°55.528 342.4 5.5 337 9.8
2006-05-17 07:37:08 51°13.97 2°55.524 342.4 5.5 337 9.8
2006-05-17 07:37:12 51°13.976 2°55.519 342.3 5.5 337 9.8
2006-05-17 07:37:17 51°13.982 2°55.515 341.8 5.5 337 9.8
2006-05-17 07:37:24 51°13.992 2°55.507 341.4 5.4 336 9.9
2006-05-17 07:37:28 51°13.997 2°55.503 340.8 5.4 335 9.9
2006-05-17 07:37:33 51°14.004 2°55.498 340.1 5.4 335 9.8
2006-05-17 07:37:38 51°14.011 2°55.493 339.5 5.4 335 9.9
2006-05-17 07:37:44 51°14.019 2°55.487 339.9 5.5 336 9.9
2006-05-17 07:37:48 51°14.025 2°55.483 341 5.5 337 9.9
2006-05-17 07:37:53 51°14.032 2°55.477 341.6 5.6 336 9.9
2006-05-17 07:37:58 51°14.039 2°55.472 341.6 5.8 336 9.9
2006-05-17 07:38:03 51°14.047 2°55.467 341.3 6 336 9.9
2006-05-17 07:38:08 51°14.055 2°55.462 341.6 6.2 336 9.9
2006-05-17 07:38:14 51°14.065 2°55.456 343.6 6.4 340 9.9
2006-05-17 07:38:17 51°14.07 2°55.452 344.9 6.4 338 9.9
2006-05-17 07:38:23 51°14.08 2°55.446 344.3 6.5 338 9.9
2006-05-17 07:38:28 51°14.089 2°55.44 343.6 6.7 337 9.9
2006-05-17 07:38:33 51°14.098 2°55.434 343.3 6.9 337 9.9
2006-05-17 07:38:38 51°14.107 2°55.428 343.2 6.9 337 9.9
2006-05-17 07:38:43 51°14.116 2°55.422 342.5 7.1 336 10.7
2006-05-17 07:38:48 51°14.125 2°55.415 342.2 7.3 336 9.9
2006-05-17 07:38:54 51°14.136 2°55.406 342.2 7.4 335 9.9
2006-05-17 07:38:58 51°14.145 2°55.401 341.5 7.5 334 9.8
2006-05-17 07:39:04 51°14.156 2°55.392 340.7 7.6 334 9.9
2006-05-17 07:39:08 51°14.164 2°55.386 339.6 7.7 333 9.8
2006-05-17 07:39:13 51°14.173 2°55.377 338.5 7.8 331 9.8
2006-05-17 07:39:18 51°14.183 2°55.369 337.4 7.9 330 9.8
2006-05-17 07:39:23 51°14.192 2°55.361 336.4 8 330 9.8
2006-05-17 07:39:28 51°14.202 2°55.351 335.3 8 329 9.8
2006-05-17 07:39:34 51°14.213 2°55.34 334 8 327 9.9
2006-05-17 07:39:38 51°14.22 2°55.331 332.2 8.2 325 9.9
2006-05-17 07:39:44 51°14.231 2°55.318 330.2 8.3 323 9.8
2006-05-17 07:39:48 51°14.238 2°55.308 328.2 8.4 321 9.8
2006-05-17 07:39:54 51°14.248 2°55.293 326.2 8.5 319 9.8
2006-05-17 07:39:58 51°14.255 2°55.283 324.1 8.5 317 9.8
2006-05-17 07:40:03 51°14.263 2°55.269 321.8 8.6 315 9.8
2006-05-17 07:40:08 51°14.271 2°55.255 319.6 8.7 313 9.8
2006-05-17 07:40:13 51°14.279 2°55.241 317.3 8.7 310 9.8
2006-05-17 07:40:18 51°14.287 2°55.225 315.3 8.8 309 9.8
2006-05-17 07:40:22 51°14.293 2°55.213 314.1 8.8 308 9.8
2006-05-17 07:40:28 51°14.302 2°55.194 313 8.9 307 9.8
2006-05-17 07:40:33 51°14.309 2°55.178 312.3 9 306 9.7
2006-05-17 07:40:38 51°14.316 2°55.162 311.6 9 305 9.7
2006-05-17 07:40:44 51°14.325 2°55.142 310.9 9 305 9.7
2006-05-17 07:40:48 51°14.33 2°55.129 310.5 9.1 304 10
2006-05-17 07:40:53 51°14.337 2°55.112 310.2 9.1 304 9.7
2006-05-17 07:40:58 51°14.345 2°55.095 310.1 9.1 304 9.7
2006-05-17 07:41:01 51°14.349 2°55.085 310 9.1 304 9.6
2006-05-17 07:41:07 51°14.357 2°55.065 310 9.2 304 9.7
2006-05-17 07:41:14 51°14.367 2°55.042 310.2 9.2 304 9.7
2006-05-17 07:41:18 51°14.373 2°55.029 310.4 9.2 304 9.7
2006-05-17 07:41:23 51°14.38 2°55.011 310.5 9.3 303 9.8
2006-05-17 07:41:28 51°14.387 2°54.994 309.5 9.2 301 9.6
2006-05-17 07:41:33 51°14.393 2°54.976 307.7 9.2 300 9.8
2006-05-17 07:41:38 51°14.399 2°54.958 305.5 9.3 297 9.6
2006-05-17 07:41:43 51°14.404 2°54.939 303.7 9.5 296 9.5
2006-05-17 07:41:48 51°14.41 2°54.919 302.4 9.6 294 9.9
2006-05-17 07:41:53 51°14.415 2°54.899 301.3 9.9 294 10
2006-05-17 07:41:58 51°14.421 2°54.878 301.1 10.1 293 9.8
2006-05-17 07:42:04 51°14.427 2°54.853 300.8 10.4 292 9.6
2006-05-17 07:42:08 51°14.432 2°54.835 300.6 10.6 292 9.5
2006-05-17 07:42:13 51°14.438 2°54.813 300.7 10.9 292 9.9
2006-05-17 07:42:18 51°14.443 2°54.789 300.3 11.1 291 10
2006-05-17 07:42:23 51°14.448 2°54.766 298.8 11.4 289 9.9
2006-05-17 07:42:27 51°14.452 2°54.746 297.4 11.7 288 9.8
2006-05-17 07:42:33 51°14.458 2°54.715 296.1 12 286 9.8
2006-05-17 07:42:38 51°14.462 2°54.689 294.5 12.2 285 9.8
2006-05-17 07:42:43 51°14.466 2°54.663 293.6 12.3 284 9.6
2006-05-17 07:42:47 51°14.47 2°54.641 294.3 12.5 286 9.7
2006-05-17 07:42:51 51°14.474 2°54.62 295.3 12.7 286 8.9
2006-05-17 07:42:58 51°14.481 2°54.582 295.8 12.8 287 9.9
2006-05-17 07:43:03 51°14.486 2°54.555 296.2 12.9 287 9.7
2006-05-17 07:43:08 51°14.492 2°54.528 296.7 12.9 288 9.5
2006-05-17 07:43:13 51°14.497 2°54.5 297.2 13.1 288 9.9
2006-05-17 07:43:18 51°14.503 2°54.472 297.5 13.2 288 10.1
2006-05-17 07:43:23 51°14.509 2°54.444 297.6 13.3 289 9.7
2006-05-17 07:43:28 51°14.515 2°54.416 298.3 13.4 289 9.7
2006-05-17 07:43:33 51°14.521 2°54.388 298.5 13.5 289 8.9
2006-05-17 07:43:38 51°14.528 2°54.36 299 13.6 290 10
2006-05-17 07:43:42 51°14.533 2°54.337 299.8 13.7 291 10.6
2006-05-17 07:43:48 51°14.541 2°54.303 300.3 13.7 291 10.4
2006-05-17 07:43:53 51°14.548 2°54.275 300.4 13.7 291 10.4
2006-05-17 07:43:58 51°14.555 2°54.246 300.8 13.8 291 10.5
2006-05-17 07:44:04 51°14.563 2°54.213 301 13.8 292 10.6
2006-05-17 07:44:07 51°14.568 2°54.196 301.3 13.8 292 10.4
2006-05-17 07:44:14 51°14.578 2°54.156 301.6 13.8 292 10.6
2006-05-17 07:44:18 51°14.584 2°54.134 302.2 13.8 293 10.1
2006-05-17 07:44:22 51°14.59 2°54.112 302.3 13.8 293 9.6
2006-05-17 07:44:28 51°14.598 2°54.078 302.4 13.8 292 10
2006-05-17 07:44:33 51°14.606 2°54.05 302 13.8 292 9.9
2006-05-17 07:44:38 51°14.613 2°54.021 301.7 13.8 292 10
2006-05-17 07:44:42 51°14.618 2°53.999 301.2 13.8 291 10.2
2006-05-17 07:44:48 51°14.626 2°53.964 299.9 13.8 290 10.6
2006-05-17 07:44:52 51°14.631 2°53.941 298.6 13.9 288 10.6
2006-05-17 07:44:57 51°14.637 2°53.912 297.6 13.8 288 10
2006-05-17 07:45:04 51°14.645 2°53.871 296.8 13.8 288 10
2006-05-17 07:45:09 51°14.651 2°53.842 296.4 13.8 288 10
2006-05-17 07:45:13 51°14.656 2°53.819 296.3 13.8 287 10.2
2006-05-17 07:45:18 51°14.662 2°53.79 296.1 13.7 287 9.6
2006-05-17 07:45:24 51°14.669 2°53.755 296.1 13.7 288 9.1
2006-05-17 07:45:28 51°14.673 2°53.732 296.2 13.7 288 9.1
2006-05-17 07:45:34 51°14.681 2°53.697 296.6 13.6 288 9.1
2006-05-17 07:45:38 51°14.685 2°53.675 296.8 13.6 289 8.9
2006-05-17 07:45:42 51°14.69 2°53.652 297.1 13.6 290 8.9
2006-05-17 07:45:48 51°14.698 2°53.618 298.3 13.6 291 8.9
2006-05-17 07:45:53 51°14.705 2°53.59 299.8 13.6 292 8.9
2006-05-17 07:45:58 51°14.713 2°53.562 301.3 13.6 293 8.9
2006-05-17 07:46:04 51°14.722 2°53.529 302.3 13.6 294 8.9
2006-05-17 07:46:08 51°14.728 2°53.508 303.1 13.6 295 8.9
2006-05-17 07:46:13 51°14.736 2°53.48 303.5 13.7 293 9
2006-05-17 07:46:18 51°14.744 2°53.453 303.6 13.7 294 8.9
2006-05-17 07:46:22 51°14.75 2°53.431 303.5 13.6 293 9.2
2006-05-17 07:46:28 51°14.758 2°53.397 301.2 13.7 290 8.9
2006-05-17 07:46:33 51°14.763 2°53.368 297.2 13.7 286 8.9
2006-05-17 07:46:37 51°14.766 2°53.344 293.9 13.7 283 9
2006-05-17 07:46:43 51°14.77 2°53.309 289.7 13.6 280 9
2006-05-17 07:46:48 51°14.772 2°53.279 285.6 13.6 275 8.9
2006-05-17 07:46:53 51°14.772 2°53.249 280.9 13.5 272 8.7
2006-05-17 07:46:58 51°14.772 2°53.219 277.9 13.6 269 8.7
2006-05-17 07:47:03 51°14.771 2°53.189 274.8 13.6 267 8.6
2006-05-17 07:47:08 51°14.769 2°53.159 272.1 13.5 264 8.5
2006-05-17 07:47:13 51°14.767 2°53.129 270 13.5 263 8.5
2006-05-17 07:47:18 51°14.764 2°53.1 268.2 13.5 262 8.3
2006-05-17 07:47:22 51°14.762 2°53.076 267.3 13.6 261 8.3
2006-05-17 07:47:28 51°14.758 2°53.041 266.5 13.6 260 8.3
2006-05-17 07:47:34 51°14.754 2°53.005 265.8 13.6 260 8.3
2006-05-17 07:47:38 51°14.751 2°52.982 265.4 13.6 259 8.3
2006-05-17 07:47:43 51°14.747 2°52.952 265.1 13.6 259 8.3
2006-05-17 07:47:48 51°14.744 2°52.922 264.7 13.7 259 8.2
2006-05-17 07:47:54 51°14.739 2°52.887 264.2 13.7 259 8.3
2006-05-17 07:47:58 51°14.736 2°52.863 264.1 13.7 259 8.3
2006-05-17 07:48:02 51°14.734 2°52.839 264.3 13.7 259 8.3
2006-05-17 07:48:08 51°14.73 2°52.803 264.9 13.7 261 8.3
2006-05-17 07:48:13 51°14.727 2°52.773 265.6 13.8 261 8.3
2006-05-17 07:48:18 51°14.725 2°52.743 267.6 13.8 263 8.3
2006-05-17 07:48:24 51°14.723 2°52.706 269.4 13.7 266 8.4
2006-05-17 07:48:27 51°14.722 2°52.688 271.5 13.7 266 8.4
2006-05-17 07:48:33 51°14.721 2°52.652 272.9 13.8 268 8.4
2006-05-17 07:48:38 51°14.721 2°52.621 274 13.8 268 8.4
2006-05-17 07:48:44 51°14.72 2°52.585 274.3 13.8 268 8.4
2006-05-17 07:48:48 51°14.72 2°52.56 274.5 13.8 268 8.4
2006-05-17 07:48:53 51°14.718 2°52.53 274.1 13.8 267 8.4
2006-05-17 07:48:58 51°14.717 2°52.5 273 13.8 266 8.4
2006-05-17 07:49:03 51°14.715 2°52.469 271.8 13.8 264 8.4
2006-05-17 07:49:08 51°14.713 2°52.439 269.9 13.8 263 8.5
2006-05-17 07:49:13 51°14.709 2°52.409 268.2 13.8 261 8.5
2006-05-17 07:49:18 51°14.706 2°52.379 266.6 13.8 260 8.4
2006-05-17 07:49:23 51°14.703 2°52.349 265.3 13.8 260 8.5
2006-05-17 07:49:28 51°14.699 2°52.32 264.6 13.8 259 8.5
2006-05-17 07:49:33 51°14.696 2°52.29 264.6 13.8 259 8.5
2006-05-17 07:49:38 51°14.692 2°52.26 264.8 13.8 260 8.5
2006-05-17 07:49:44 51°14.688 2°52.224 264.9 13.8 259 8.5
2006-05-17 07:49:48 51°14.686 2°52.2 265 13.8 260 8.5
2006-05-17 07:49:53 51°14.682 2°52.17 265.3 13.8 260 8.5
2006-05-17 07:49:58 51°14.679 2°52.14 265.3 13.8 260 8.5
2006-05-17 07:50:03 51°14.676 2°52.11 265.6 13.7 260 8.5
2006-05-17 07:50:08 51°14.672 2°52.08 265.5 13.8 260 8.6
2006-05-17 07:50:14 51°14.669 2°52.044 266 13.8 262 8.6
2006-05-17 07:50:18 51°14.667 2°52.02 267.3 13.8 263 8.6
2006-05-17 07:50:23 51°14.665 2°51.989 269 13.8 264 8.6
2006-05-17 07:50:28 51°14.664 2°51.959 270.4 13.8 265 8.7
2006-05-17 07:50:33 51°14.663 2°51.929 272.6 13.8 267 8.7
2006-05-17 07:50:38 51°14.662 2°51.898 274.3 13.8 268 8.8
2006-05-17 07:50:43 51°14.662 2°51.867 275.1 13.8 269 8.8
2006-05-17 07:50:49 51°14.661 2°51.831 276 13.9 269 8.8
2006-05-17 07:50:53 51°14.661 2°51.806 276.6 13.9 270 8.8
2006-05-17 07:50:58 51°14.661 2°51.775 277 13.9 270 8.9
2006-05-17 07:51:03 51°14.661 2°51.745 276.9 13.9 269 8.9
2006-05-17 07:51:08 51°14.66 2°51.714 276.5 13.9 269 8.9
2006-05-17 07:51:13 51°14.659 2°51.683 275.8 13.9 268 8.9
2006-05-17 07:51:18 51°14.658 2°51.653 274.9 13.9 266 9
2006-05-17 07:51:24 51°14.655 2°51.616 272.7 14 263 9
2006-05-17 07:51:27 51°14.653 2°51.597 269.8 14 261 9
2006-05-17 07:51:33 51°14.649 2°51.561 267.5 14 260 9
2006-05-17 07:51:38 51°14.645 2°51.531 266.3 14 259 9.1
2006-05-17 07:51:44 51°14.641 2°51.494 265.6 14 259 9.1
2006-05-17 07:51:49 51°14.637 2°51.464 265 14 258 9
2006-05-17 07:51:53 51°14.634 2°51.44 264.6 14 258 9
2006-05-17 07:51:58 51°14.629 2°51.409 264.4 14 258 9
2006-05-17 07:52:02 51°14.626 2°51.385 264.2 14 258 9.1
2006-05-17 07:52:08 51°14.621 2°51.349 264.1 14.1 257 9.1
2006-05-17 07:52:13 51°14.617 2°51.318 264.1 14 258 9.1
2006-05-17 07:52:18 51°14.613 2°51.288 264.1 14.1 258 9.1
2006-05-17 07:52:23 51°14.609 2°51.258 264.4 14 259 9.1
2006-05-17 07:52:28 51°14.606 2°51.227 264.9 14 259 9.1
2006-05-17 07:52:33 51°14.603 2°51.196 265.6 14.1 260 9.2
2006-05-17 07:52:38 51°14.599 2°51.165 266.3 14.1 261 9.2
2006-05-17 07:52:44 51°14.596 2°51.129 267.8 14.1 262 9.3
2006-05-17 07:52:48 51°14.595 2°51.104 269.2 14.1 264 9.2
2006-05-17 07:52:53 51°14.592 2°51.073 270.5 14.1 264 9.2
2006-05-17 07:52:58 51°14.591 2°51.042 271.3 14.1 265 9.3
2006-05-17 07:53:04 51°14.589 2°51.005 271.9 14.1 265 9.3
2006-05-17 07:53:08 51°14.587 2°50.98 272.1 14.1 266 9.3
2006-05-17 07:53:12 51°14.586 2°50.955 272.2 14.1 265 9.3
2006-05-17 07:53:18 51°14.584 2°50.918 272.1 14.1 265 9.4
2006-05-17 07:53:24 51°14.581 2°50.881 271.4 14.1 264 9.4
2006-05-17 07:53:28 51°14.579 2°50.856 270.9 14.1 264 9.4
2006-05-17 07:53:34 51°14.576 2°50.819 270 14.1 262 9.5
2006-05-17 07:53:38 51°14.574 2°50.794 268.8 14.1 261 9.5
2006-05-17 07:53:43 51°14.57 2°50.764 267.3 14.1 260 9.5
2006-05-17 07:53:49 51°14.566 2°50.727 266.3 14.1 260 9.6
2006-05-17 07:53:52 51°14.564 2°50.708 265.4 14.1 259 9.6
2006-05-17 07:53:57 51°14.56 2°50.678 265.2 14.1 259 9.7
2006-05-17 07:54:03 51°14.555 2°50.641 264.9 14.1 258 9.7
2006-05-17 07:54:08 51°14.552 2°50.61 264.7 14.1 259 9.7
2006-05-17 07:54:13 51°14.547 2°50.58 264.7 14.1 259 9.7
2006-05-17 07:54:18 51°14.544 2°50.549 264.9 14.1 259 9.7
2006-05-17 07:54:23 51°14.54 2°50.519 265.3 14.1 259 9.8
2006-05-17 07:54:28 51°14.537 2°50.488 265.6 14.1 259 9.8
2006-05-17 07:54:34 51°14.533 2°50.451 265.6 14.1 259 9.8
2006-05-17 07:54:38 51°14.53 2°50.426 265.9 14.2 260 9.8
2006-05-17 07:54:43 51°14.527 2°50.396 266.3 14.2 260 9.8
2006-05-17 07:54:48 51°14.523 2°50.364 267.1 14.2 261 9.8
2006-05-17 07:54:52 51°14.521 2°50.339 267.8 14.2 262 9.8
2006-05-17 07:54:58 51°14.518 2°50.302 268.5 14.1 263 9.9
2006-05-17 07:55:03 51°14.516 2°50.271 268.9 14.1 263 9.9
2006-05-17 07:55:08 51°14.513 2°50.24 269.3 14.1 263 9.9
2006-05-17 07:55:13 51°14.511 2°50.209 269.5 14.1 262 10
2006-05-17 07:55:18 51°14.508 2°50.178 269.2 14.1 262 10
2006-05-17 07:55:22 51°14.505 2°50.154 267.5 14.1 259 10.1
2006-05-17 07:55:28 51°14.499 2°50.117 265 14.1 257 10.1
2006-05-17 07:55:33 51°14.494 2°50.087 262.3 14.1 255 10.1
2006-05-17 07:55:38 51°14.489 2°50.057 260.4 14.1 254 10.2
2006-05-17 07:55:44 51°14.482 2°50.022 258.7 14.1 252 10.3
2006-05-17 07:55:48 51°14.477 2°49.998 257.6 14.1 252 10.3
2006-05-17 07:55:53 51°14.47 2°49.968 256.4 14.2 251 10.3
2006-05-17 07:55:58 51°14.464 2°49.939 256 14.2 251 10.3
2006-05-17 07:56:03 51°14.457 2°49.91 255.7 14.2 250 10.3
2006-05-17 07:56:08 51°14.451 2°49.88 255.8 14.2 251 10.3
2006-05-17 07:56:13 51°14.444 2°49.851 255.8 14.2 250 10.3
2006-05-17 07:56:18 51°14.438 2°49.821 255.8 14.2 251 10.3
2006-05-17 07:56:22 51°14.432 2°49.797 256 14.2 251 10.4
2006-05-17 07:56:28 51°14.425 2°49.762 256.1 14.2 251 10.4
2006-05-17 07:56:33 51°14.418 2°49.732 255.9 14.2 251 10.4
2006-05-17 07:56:37 51°14.413 2°49.709 256 14.2 251 10.4
2006-05-17 07:56:43 51°14.406 2°49.673 256.5 14.2 251 10.4
2006-05-17 07:56:48 51°14.4 2°49.643 257.6 14.2 253 10.4
2006-05-17 07:56:53 51°14.394 2°49.613 258.7 14.2 254 10.4
2006-05-17 07:56:58 51°14.389 2°49.583 259.2 14.2 254 10.4
2006-05-17 07:57:03 51°14.384 2°49.553 259.9 14.2 255 10.5
2006-05-17 07:57:08 51°14.378 2°49.522 259.9 14.2 254 10.5
2006-05-17 07:57:13 51°14.373 2°49.492 260 14.2 255 10.5
2006-05-17 07:57:18 51°14.368 2°49.462 260.2 14.2 254 10.5
2006-05-17 07:57:24 51°14.361 2°49.426 260.1 14.2 253 10.4
2006-05-17 07:57:28 51°14.357 2°49.402 258.8 14.2 253 10.5
2006-05-17 07:57:33 51°14.35 2°49.372 257.8 14.2 252 10.4
2006-05-17 07:57:38 51°14.344 2°49.343 256.7 14.2 251 10.4
2006-05-17 07:57:44 51°14.336 2°49.307 255.9 14.2 250 10.3
2006-05-17 07:57:48 51°14.33 2°49.284 254.9 14.1 249 10.5
2006-05-17 07:57:52 51°14.324 2°49.26 253.6 14.2 248 10.4
2006-05-17 07:57:58 51°14.316 2°49.225 253.5 14.2 249 10.5
2006-05-17 07:58:04 51°14.307 2°49.19 253.5 14.2 249 10.3
2006-05-17 07:58:08 51°14.301 2°49.167 253.5 14.2 249 10.4
2006-05-17 07:58:13 51°14.294 2°49.137 254.4 14.2 249 10.5
2006-05-17 07:58:17 51°14.289 2°49.114 254.4 14.2 250 10.4
2006-05-17 07:58:23 51°14.282 2°49.078 255.5 14.2 251 10.3
2006-05-17 07:58:28 51°14.275 2°49.048 256.9 14.2 252 10.5
2006-05-17 07:58:33 51°14.27 2°49.018 257.4 14.2 252 10.5
2006-05-17 07:58:38 51°14.264 2°48.988 258.2 14.2 253 10.5
2006-05-17 07:58:42 51°14.259 2°48.964 258.3 14.2 253 10.4
2006-05-17 07:58:48 51°14.252 2°48.928 258.2 14.2 253 10.3
2006-05-17 07:58:54 51°14.244 2°48.893 257.6 14.2 251 10.3
2006-05-17 07:58:58 51°14.239 2°48.869 257 14.2 251 10.4
2006-05-17 07:59:03 51°14.232 2°48.84 255.6 14.1 249 10.3
2006-05-17 07:59:08 51°14.225 2°48.811 253.2 14.1 247 10.3
2006-05-17 07:59:13 51°14.217 2°48.783 251.1 14.2 245 10.4
2006-05-17 07:59:17 51°14.21 2°48.76 249.9 14.2 245 10.3
2006-05-17 07:59:24 51°14.198 2°48.721 248.6 14.1 243 10.3
2006-05-17 07:59:28 51°14.19 2°48.699 247.5 14.1 243 10.3
2006-05-17 07:59:34 51°14.18 2°48.665 246.7 14.2 243 10.3
2006-05-17 07:59:38 51°14.172 2°48.643 246.6 14.2 242 10.4
2006-05-17 07:59:43 51°14.163 2°48.616 246.2 14.1 242 10.4
2006-05-17 07:59:47 51°14.156 2°48.594 245.9 14.1 242 10.3
2006-05-17 07:59:53 51°14.145 2°48.561 245.5 14.1 242 10.4
2006-05-17 07:59:58 51°14.135 2°48.534 245.5 14.1 241 10.3
2006-05-17 08:00:04 51°14.125 2°48.502 245.4 13.4 242 10.3
2006-05-17 08:00:07 51°14.12 2°48.488 245.9 12.6 243 10.3
2006-05-17 08:00:13 51°14.111 2°48.459 246.1 12.2 242 10.2
2006-05-17 08:00:18 51°14.104 2°48.437 246.5 11.3 243 10.3
2006-05-17 08:00:21 51°14.1 2°48.425 246.9 10.6 243 10.4
2006-05-17 08:00:28 51°14.091 2°48.397 247 10 244 10.5
2006-05-17 08:00:34 51°14.084 2°48.374 247.5 9.5 244 10.5
2006-05-17 08:00:38 51°14.08 2°48.36 247.6 9.2 244 10.5
2006-05-17 08:00:41 51°14.077 2°48.35 247.9 8.8 244 10.4
2006-05-17 08:00:47 51°14.07 2°48.329 248 8.4 245 10.4
2006-05-17 08:00:53 51°14.065 2°48.31 248.2 8 244 10.5
2006-05-17 08:00:58 51°14.06 2°48.295 248.2 7.8 245 10.5
2006-05-17 08:01:03 51°14.056 2°48.28 248.2 7.5 245 10.3
2006-05-17 08:01:08 51°14.051 2°48.266 248.2 7.2 244 10.5
2006-05-17 08:01:13 51°14.047 2°48.252 247.9 7 245 10.5
2006-05-17 08:01:18 51°14.043 2°48.239 247.5 6.8 244 10.4
2006-05-17 08:01:23 51°14.039 2°48.226 247.2 6.6 244 10.4
2006-05-17 08:01:28 51°14.035 2°48.213 246.9 6.4 244 10.3
2006-05-17 08:01:33 51°14.031 2°48.201 246.4 6.2 243 10.5
2006-05-17 08:01:38 51°14.028 2°48.189 246.2 6.1 243 10.5
2006-05-17 08:01:42 51°14.025 2°48.18 245.7 6 243 10.4
2006-05-17 08:01:48 51°14.02 2°48.166 245.4 5.8 243 10.5
2006-05-17 08:01:53 51°14.017 2°48.155 244.9 5.7 243 10.4
2006-05-17 08:01:58 51°14.013 2°48.144 244.6 5.6 242 10.5
2006-05-17 08:02:04 51°14.009 2°48.132 244.2 5.3 243 10.4
2006-05-17 08:02:08 51°14.006 2°48.124 243.4 5.2 241 10.6
2006-05-17 08:02:13 51°14.003 2°48.114 242.1 5 241 10.3
2006-05-17 08:02:18 51°13.999 2°48.105 240.9 4.9 239 10.4
2006-05-17 08:02:23 51°13.996 2°48.096 239.6 4.7 240 10.4
2006-05-17 08:02:28 51°13.993 2°48.088 238.5 4.5 238 10.5
2006-05-17 08:02:33 51°13.99 2°48.08 237.2 4.2 239 10.5
2006-05-17 08:02:38 51°13.987 2°48.073 236.4 3.8 238 10.4
2006-05-17 08:02:42 51°13.985 2°48.068 237.4 3.3 240 10.5
2006-05-17 08:02:48 51°13.983 2°48.062 240.1 2.8 242 10.5
2006-05-17 08:02:53 51°13.982 2°48.057 243.7 2.3 243 10.4
2006-05-17 08:02:58 51°13.981 2°48.053 247.2 1.9 245 10.4
2006-05-17 08:03:03 51°13.98 2°48.05 250.6 1.6 248 10.5
2006-05-17 08:03:07 51°13.979 2°48.048 253.3 1.2 245 10.5
2006-05-17 08:03:13 51°13.979 2°48.046 256 0.8 246 10.5
2006-05-17 08:03:18 51°13.978 2°48.045 258.5 0.6 233 10.5
2006-05-17 08:03:23 51°13.978 2°48.045 261.2 0.3 226 10.5
2006-05-17 08:03:28 51°13.977 2°48.045 263.5 0.4 197 10.4
2006-05-17 08:03:33 51°13.977 2°48.044 265.6 0.3 217 -999
2006-05-17 08:03:39 51°13.977 2°48.044 267.5 0.4 215 -999
2006-05-17 08:03:44 51°13.976 2°48.043 269.1 0.4 220 -999
2006-05-17 08:03:49 51°13.976 2°48.042 270.6 0.5 219 -999
2006-05-17 08:03:54 51°13.975 2°48.042 271.5 0.4 224 -999
2006-05-17 08:03:59 51°13.975 2°48.041 272.3 0.5 218 -999
2006-05-17 08:04:03 51°13.974 2°48.04 273.4 0.5 224 4.5
2006-05-17 08:04:09 51°13.974 2°48.039 274 0.5 219 -999
2006-05-17 08:04:14 51°13.973 2°48.039 275 0.5 225 10.5
2006-05-17 08:04:18 51°13.973 2°48.038 275.3 0.5 224 -999
2006-05-17 08:04:23 51°13.972 2°48.037 275.8 0.5 224 10.5
2006-05-17 08:04:28 51°13.971 2°48.036 276.2 0.6 226 10.5
2006-05-17 08:04:32 51°13.971 2°48.036 276.5 0.5 228 10.4
2006-05-17 08:04:38 51°13.97 2°48.034 276.9 0.6 224 10.4
2006-05-17 08:04:42 51°13.97 2°48.033 277.2 0.6 233 10.4
2006-05-17 08:04:48 51°13.969 2°48.032 277.2 0.7 225 10.5
2006-05-17 08:04:53 51°13.969 2°48.031 277.4 0.5 237 10.5
2006-05-17 08:04:58 51°13.968 2°48.03 277.6 0.6 229 10.5
2006-05-17 08:05:02 51°13.968 2°48.029 277.8 0.6 233 10.5
2006-05-17 08:05:07 51°13.968 2°48.028 277.9 0.6 238 10.5
2006-05-17 08:05:11 51°13.967 2°48.027 278.1 0.6 236 10.5
2006-05-17 08:05:18 51°13.966 2°48.026 278.5 0.6 238 10.4
2006-05-17 08:05:23 51°13.966 2°48.024 278.6 0.6 235 10.4
2006-05-17 08:05:28 51°13.966 2°48.023 278.9 0.6 237 10.4
2006-05-17 08:05:33 51°13.965 2°48.022 279.2 0.6 238 10.4
2006-05-17 08:05:38 51°13.965 2°48.021 279.7 0.6 239 10.5
2006-05-17 08:05:44 51°13.964 2°48.019 280.1 0.6 248 10.5
2006-05-17 08:05:48 51°13.964 2°48.018 280.7 0.7 238 10.5
2006-05-17 08:05:53 51°13.964 2°48.017 281.1 0.6 248 10.5
2006-05-17 08:05:58 51°13.963 2°48.016 281.8 0.7 234 10.5
2006-05-17 08:06:04 51°13.962 2°48.014 282.3 0.7 243 10.4
2006-05-17 08:06:08 51°13.962 2°48.013 283 0.7 236 10.4
2006-05-17 08:06:13 51°13.962 2°48.012 283.7 0.7 245 10.4
2006-05-17 08:06:18 51°13.962 2°48.011 284.2 0.7 245 10.4
2006-05-17 08:06:23 51°13.961 2°48.009 284.8 0.7 243 10.5
2006-05-17 08:06:27 51°13.961 2°48.008 285.6 0.7 240 10.5
2006-05-17 08:06:33 51°13.96 2°48.006 285.9 0.8 242 10.5
2006-05-17 08:06:38 51°13.96 2°48.005 286.6 0.7 244 10.5
2006-05-17 08:06:43 51°13.959 2°48.003 287.1 0.7 246 10.5
2006-05-17 08:06:48 51°13.959 2°48.002 287.6 0.7 246 10.5
2006-05-17 08:06:51 51°13.959 2°48.001 288.1 0.8 245 10.4
2006-05-17 08:06:58 51°13.958 2°47.999 288.4 0.7 247 10.3
2006-05-17 08:07:03 51°13.958 2°47.997 288.8 0.8 247 10.4
2006-05-17 08:07:08 51°13.957 2°47.996 289.2 0.8 245 10.4
2006-05-17 08:07:13 51°13.957 2°47.994 289.5 0.7 251 10.4
2006-05-17 08:07:18 51°13.956 2°47.993 290 0.8 249 10.5
2006-05-17 08:07:23 51°13.956 2°47.991 290.5 0.8 252 10.4
2006-05-17 08:07:28 51°13.956 2°47.989 291.1 0.8 245 10.4
2006-05-17 08:07:33 51°13.955 2°47.988 291.5 0.7 254 10.4
2006-05-17 08:07:38 51°13.955 2°47.986 291.9 0.8 244 10.5
2006-05-17 08:07:44 51°13.954 2°47.984 292.2 0.8 251 10.5
2006-05-17 08:07:48 51°13.954 2°47.982 292.6 0.8 252 10.5
2006-05-17 08:07:53 51°13.953 2°47.981 293.1 0.9 249 10.4
2006-05-17 08:07:58 51°13.953 2°47.979 293.3 0.8 254 10.4
2006-05-17 08:08:03 51°13.953 2°47.977 293.8 0.9 248 10.5
2006-05-17 08:08:08 51°13.952 2°47.976 293.9 0.8 253 10.4
2006-05-17 08:08:13 51°13.952 2°47.974 294.4 0.9 247 10.5
2006-05-17 08:08:18 51°13.952 2°47.972 294.6 0.8 252 10.5
2006-05-17 08:08:23 51°13.951 2°47.97 294.9 0.9 248 10.4
2006-05-17 08:08:28 51°13.951 2°47.968 295.2 0.8 256 10.3
2006-05-17 08:08:33 51°13.95 2°47.966 295.5 0.9 250 10.4
2006-05-17 08:08:38 51°13.95 2°47.965 295.8 0.9 255 10.4
2006-05-17 08:08:43 51°13.949 2°47.963 296.1 1 247 10.4
2006-05-17 08:08:48 51°13.949 2°47.961 296.2 0.9 257 10.4
2006-05-17 08:08:54 51°13.949 2°47.958 296.4 0.9 250 10.5
2006-05-17 08:08:58 51°13.948 2°47.957 296.6 0.9 256 10.5
2006-05-17 08:09:03 51°13.948 2°47.955 296.8 1 247 10.4
2006-05-17 08:09:07 51°13.948 2°47.953 297 0.9 254 10.4
2006-05-17 08:09:13 51°13.947 2°47.951 297.1 1 252 10.4
2006-05-17 08:09:18 51°13.947 2°47.949 297.4 1 254 10.4
2006-05-17 08:09:24 51°13.946 2°47.947 297.5 1 252 10.5
2006-05-17 08:09:28 51°13.946 2°47.945 297.8 0.9 255 10.3
2006-05-17 08:09:33 51°13.946 2°47.943 298 1 252 10.4
2006-05-17 08:09:38 51°13.945 2°47.941 298.2 0.9 257 10.4
2006-05-17 08:09:44 51°13.945 2°47.939 298.3 1 253 10.4
2006-05-17 08:09:47 51°13.945 2°47.937 298.6 0.9 261 10.4
2006-05-17 08:09:52 51°13.944 2°47.935 298.8 1 254 10.4
2006-05-17 08:09:58 51°13.944 2°47.933 299 0.9 259 10.4
2006-05-17 08:10:01 51°13.944 2°47.931 299.1 1 253 10.5
2006-05-17 08:10:07 51°13.943 2°47.929 299.4 0.9 259 10.5
2006-05-17 08:10:13 51°13.943 2°47.926 299.6 1 255 10.5
2006-05-17 08:10:18 51°13.942 2°47.924 299.7 1 258 10.5
2006-05-17 08:10:22 51°13.942 2°47.923 299.9 1 255 10.4
2006-05-17 08:10:28 51°13.942 2°47.92 300 1 257 10.4
2006-05-17 08:10:33 51°13.942 2°47.918 300.1 1 255 10.4
2006-05-17 08:10:38 51°13.941 2°47.916 300.3 1 261 10.4
2006-05-17 08:10:43 51°13.941 2°47.914 300.4 1 256 10.4
2006-05-17 08:10:48 51°13.941 2°47.911 300.4 1 263 10.5
2006-05-17 08:10:54 51°13.941 2°47.909 300.6 1.1 252 10.4
2006-05-17 08:10:58 51°13.94 2°47.907 300.6 1 261 10.4
2006-05-17 08:11:03 51°13.94 2°47.905 300.8 1 255 10.4
2006-05-17 08:11:08 51°13.94 2°47.903 300.9 1 260 10.5
2006-05-17 08:11:13 51°13.94 2°47.9 301 1.1 256 10.4
2006-05-17 08:11:18 51°13.939 2°47.898 301.1 1 263 10.4
2006-05-17 08:11:23 51°13.939 2°47.896 301.1 1.1 254 10.5
2006-05-17 08:11:28 51°13.939 2°47.894 301.1 1.1 267 10.4
2006-05-17 08:11:33 51°13.939 2°47.891 301.1 1.3 264 10.4
2006-05-17 08:11:38 51°13.939 2°47.887 301.4 1.5 274 10.4
2006-05-17 08:11:44 51°13.939 2°47.883 302 1.7 273 10.4
2006-05-17 08:11:48 51°13.94 2°47.879 302.9 2 281 10.4
2006-05-17 08:11:53 51°13.941 2°47.873 303.9 2.9 287 10.4
2006-05-17 08:11:58 51°13.943 2°47.865 306.1 3.5 290 10.4
2006-05-17 08:12:03 51°13.945 2°47.856 309 4 293 10.4
2006-05-17 08:12:08 51°13.949 2°47.847 312.8 4.8 300 10.4
2006-05-17 08:12:13 51°13.953 2°47.838 316.9 5.1 303 10.3
2006-05-17 08:12:18 51°13.957 2°47.828 321.9 5.4 307 10.4
2006-05-17 08:12:23 51°13.963 2°47.819 325.6 5.8 314 10.4
2006-05-17 08:12:28 51°13.969 2°47.81 330.7 6 318 10.3
2006-05-17 08:12:33 51°13.976 2°47.802 335.7 6.2 324 10.4
2006-05-17 08:12:38 51°13.984 2°47.796 340.7 6.3 328 10.5
2006-05-17 08:12:42 51°13.99 2°47.79 345.4 6.4 333 10.4
2006-05-17 08:12:47 51°13.998 2°47.785 350.1 6.2 337 10.5
2006-05-17 08:12:54 51°14.009 2°47.779 354.9 5.8 342 10.4
2006-05-17 08:12:58 51°14.015 2°47.777 359 5.6 344 10.4
2006-05-17 08:13:03 51°14.022 2°47.775 2.7 5.3 349 10.4
2006-05-17 08:13:08 51°14.029 2°47.773 6.3 5.1 351 10.4
2006-05-17 08:13:14 51°14.037 2°47.772 10 4.8 356 10.4
2006-05-17 08:13:18 51°14.042 2°47.772 14.2 4.5 -999 10.4
2006-05-17 08:13:23 51°14.048 2°47.773 18.6 4.4 2 10.5
2006-05-17 08:13:28 51°14.053 2°47.774 23 4.1 8 10.3
2006-05-17 08:13:33 51°14.058 2°47.776 27.5 3.9 13 10.5
2006-05-17 08:13:38 51°14.063 2°47.779 32.2 3.6 18 10.5
2006-05-17 08:13:42 51°14.067 2°47.781 36.5 3.4 23 10.5
2006-05-17 08:13:48 51°14.072 2°47.785 39.9 3.4 25 10.4
2006-05-17 08:13:53 51°14.076 2°47.789 42.8 3.2 29 10.5
2006-05-17 08:13:58 51°14.079 2°47.792 45 3.2 31 10.4
2006-05-17 08:14:03 51°14.083 2°47.796 47.5 3.1 36 10.4
2006-05-17 08:14:08 51°14.086 2°47.8 49.5 3 37 10.5
2006-05-17 08:14:14 51°14.09 2°47.806 50.9 3 40 10.5
2006-05-17 08:14:18 51°14.092 2°47.809 52.8 3 41 10.5
2006-05-17 08:14:22 51°14.095 2°47.813 54.6 3 44 10.4
2006-05-17 08:14:28 51°14.098 2°47.819 56.3 2.9 47 10.4
2006-05-17 08:14:33 51°14.101 2°47.823 57.3 2.9 49 10.5
2006-05-17 08:14:38 51°14.103 2°47.828 58 3 49 10.5
2006-05-17 08:14:42 51°14.106 2°47.832 58.8 3 50 10.5
2006-05-17 08:14:47 51°14.108 2°47.837 59.5 3 51 10.4
2006-05-17 08:14:53 51°14.111 2°47.844 59.9 3 53 10.3
2006-05-17 08:14:57 51°14.113 2°47.848 60.1 3 51 10.4
2006-05-17 08:15:04 51°14.117 2°47.855 60.2 3 52 10.5
2006-05-17 08:15:07 51°14.118 2°47.858 60.3 3 52 10.3
2006-05-17 08:15:13 51°14.122 2°47.865 60.3 3 52 10.5
2006-05-17 08:15:18 51°14.124 2°47.87 60.3 3 52 10.5
2006-05-17 08:15:22 51°14.126 2°47.874 60.2 3 52 10.3
2006-05-17 08:15:28 51°14.129 2°47.88 60.1 3 52 10.5
2006-05-17 08:15:33 51°14.132 2°47.886 59.8 3 52 10.4
2006-05-17 08:15:38 51°14.134 2°47.891 59.5 3 52 10.4
2006-05-17 08:15:43 51°14.137 2°47.896 59.2 3 51 10.4
2006-05-17 08:15:48 51°14.14 2°47.901 58.9 3.1 50 10.5
2006-05-17 08:15:51 51°14.142 2°47.904 58.7 3 52 10.4
2006-05-17 08:15:58 51°14.145 2°47.911 58.4 3 50 10.6
2006-05-17 08:16:03 51°14.148 2°47.916 58.1 3 49 10.5
2006-05-17 08:16:08 51°14.151 2°47.921 57.7 3.1 48 10.4
2006-05-17 08:16:13 51°14.154 2°47.927 57.3 3 49 10.5
2006-05-17 08:16:18 51°14.157 2°47.931 56.7 3 46 10.4
2006-05-17 08:16:24 51°14.16 2°47.937 56.2 3 48 10.4
2006-05-17 08:16:28 51°14.163 2°47.941 55.7 3 46 10.5
2006-05-17 08:16:33 51°14.166 2°47.946 55.3 3 46 10.5
2006-05-17 08:16:38 51°14.168 2°47.951 55 3 47 10.5
2006-05-17 08:16:42 51°14.171 2°47.955 54.7 3 45 10.5
2006-05-17 08:16:48 51°14.174 2°47.96 54.4 3 44 10.4
2006-05-17 08:16:53 51°14.177 2°47.965 54.2 3 45 10.4
2006-05-17 08:16:58 51°14.18 2°47.969 53.8 3 43 10.4
2006-05-17 08:17:03 51°14.183 2°47.974 53.4 3 44 10.4
2006-05-17 08:17:08 51°14.186 2°47.978 52.9 3 43 10.4
2006-05-17 08:17:13 51°14.189 2°47.982 52.2 2.9 41 10.4
2006-05-17 08:17:18 51°14.193 2°47.987 51.7 2.9 41 10.5
2006-05-17 08:17:23 51°14.196 2°47.991 51.1 3 39 10.4
2006-05-17 08:17:28 51°14.199 2°47.995 50.8 2.9 40 10.4
2006-05-17 08:17:33 51°14.202 2°47.999 50.4 3 38 10.4
2006-05-17 08:17:38 51°14.205 2°48.003 50.4 2.9 40 10.4
2006-05-17 08:17:44 51°14.209 2°48.008 50.5 2.9 37 10.5
2006-05-17 08:17:48 51°14.212 2°48.011 50.7 3 39 10.4
2006-05-17 08:17:53 51°14.215 2°48.015 51.1 2.9 40 10.5
2006-05-17 08:17:58 51°14.218 2°48.02 51.5 2.9 40 10.5
2006-05-17 08:18:04 51°14.222 2°48.025 51.9 2.9 40 10.4
2006-05-17 08:18:08 51°14.224 2°48.028 52.2 2.9 40 10.4
2006-05-17 08:18:14 51°14.228 2°48.033 52.5 2.9 43 10.4
2006-05-17 08:18:18 51°14.23 2°48.037 53.1 2.9 41 10.5
2006-05-17 08:18:24 51°14.234 2°48.042 53.7 2.9 45 10.4
2006-05-17 08:18:27 51°14.235 2°48.045 54.4 2.9 42 10.4
2006-05-17 08:18:33 51°14.239 2°48.05 55.1 2.9 45 10.5
2006-05-17 08:18:38 51°14.241 2°48.055 55.8 2.9 45 10.5
2006-05-17 08:18:43 51°14.244 2°48.059 56.5 2.9 47 10.4
2006-05-17 08:18:48 51°14.247 2°48.064 57.2 2.9 47 10.5
2006-05-17 08:18:53 51°14.249 2°48.069 57.9 2.9 49 10.5
2006-05-17 08:18:58 51°14.252 2°48.073 58.4 2.9 48 10.4
2006-05-17 08:19:03 51°14.255 2°48.078 59.1 2.8 51 10.5
2006-05-17 08:19:08 51°14.257 2°48.083 59.5 2.9 50 10.5
2006-05-17 08:19:14 51°14.26 2°48.089 60.2 2.8 51 10.4
2006-05-17 08:19:18 51°14.262 2°48.093 60.9 2.8 51 10.5
2006-05-17 08:19:21 51°14.263 2°48.096 61.4 2.8 53 10.5
2006-05-17 08:19:27 51°14.266 2°48.102 61.8 2.8 53 10.5
2006-05-17 08:19:33 51°14.269 2°48.108 62.2 2.8 57 10.5
2006-05-17 08:19:38 51°14.271 2°48.113 62.6 2.8 52 10.5
2006-05-17 08:19:42 51°14.273 2°48.117 62.9 2.8 55 10.4
2006-05-17 08:19:48 51°14.275 2°48.123 63.1 2.8 57 10.5
2006-05-17 08:19:53 51°14.278 2°48.128 63.4 2.8 55 10.5
2006-05-17 08:19:58 51°14.28 2°48.133 63.5 2.8 56 10.5
2006-05-17 08:20:04 51°14.282 2°48.14 63.8 2.8 56 10.5
2006-05-17 08:20:09 51°14.284 2°48.145 64 2.8 58 10.5
2006-05-17 08:20:13 51°14.286 2°48.149 64 2.8 56 10.5
2006-05-17 08:20:18 51°14.288 2°48.155 64.2 2.8 59 10.5
2006-05-17 08:20:23 51°14.29 2°48.16 64.2 2.8 57 10.4
2006-05-17 08:20:28 51°14.292 2°48.165 64.3 2.8 59 10.5
2006-05-17 08:20:33 51°14.294 2°48.17 64.2 2.8 56 10.4
2006-05-17 08:20:37 51°14.296 2°48.175 64.2 2.8 59 10.5
2006-05-17 08:20:44 51°14.299 2°48.182 64 2.8 58 10.5
2006-05-17 08:20:48 51°14.301 2°48.186 63.8 2.8 58 10.6
2006-05-17 08:20:54 51°14.303 2°48.192 63.7 2.8 58 10.5
2006-05-17 08:20:58 51°14.305 2°48.197 63.5 2.8 56 10.5
2006-05-17 08:21:02 51°14.307 2°48.201 63.1 2.8 58 10.5
2006-05-17 08:21:08 51°14.309 2°48.207 62.9 2.8 55 10.5
2006-05-17 08:21:13 51°14.311 2°48.212 62.4 2.8 57 10.5
2006-05-17 08:21:18 51°14.314 2°48.217 62.2 2.8 56 10.5
2006-05-17 08:21:22 51°14.315 2°48.221 61.9 2.8 55 10.5
2006-05-17 08:21:27 51°14.318 2°48.226 61.6 2.8 54 10.5
2006-05-17 08:21:34 51°14.321 2°48.233 61.1 2.8 54 10.5
2006-05-17 08:21:38 51°14.323 2°48.237 60.8 2.8 53 10.5
2006-05-17 08:21:43 51°14.325 2°48.242 60.3 2.8 52 10.5
2006-05-17 08:21:48 51°14.327 2°48.246 60 2.8 52 10.5
2006-05-17 08:21:53 51°14.33 2°48.251 59.6 2.8 52 10.5
2006-05-17 08:21:58 51°14.332 2°48.256 59.4 2.8 51 10.5
2006-05-17 08:22:03 51°14.335 2°48.261 59.2 2.8 51 10.5
2006-05-17 08:22:08 51°14.337 2°48.265 58.9 2.8 50 10.5
2006-05-17 08:22:13 51°14.34 2°48.27 58.7 2.8 51 10.5
2006-05-17 08:22:18 51°14.342 2°48.275 58.7 2.8 50 10.6
2006-05-17 08:22:22 51°14.344 2°48.279 58.7 2.8 50 10.5
2006-05-17 08:22:28 51°14.347 2°48.284 58.6 2.8 49 10.6
2006-05-17 08:22:34 51°14.35 2°48.29 58.6 2.8 51 10.5
2006-05-17 08:22:38 51°14.352 2°48.293 58.6 2.8 48 10.6
2006-05-17 08:22:41 51°14.354 2°48.296 58.6 2.8 51 10.6
2006-05-17 08:22:47 51°14.357 2°48.302 58.7 2.8 47 10.6
2006-05-17 08:22:53 51°14.36 2°48.307 58.8 2.8 52 10.6
2006-05-17 08:22:58 51°14.362 2°48.312 59 2.8 47 10.6
2006-05-17 08:23:04 51°14.365 2°48.318 59 2.8 50 10.5
2006-05-17 08:23:08 51°14.367 2°48.322 59.3 2.8 50 10.6
2006-05-17 08:23:14 51°14.37 2°48.328 59.5 2.8 51 10.6
2006-05-17 08:23:18 51°14.372 2°48.332 59.5 2.9 51 10.6
2006-05-17 08:23:22 51°14.374 2°48.336 59.5 2.9 50 10.6
2006-05-17 08:23:29 51°14.378 2°48.342 59.7 2.8 50 10.6
2006-05-17 08:23:33 51°14.38 2°48.346 59.7 2.9 50 10.6
2006-05-17 08:23:38 51°14.382 2°48.351 59.6 2.8 51 10.6
2006-05-17 08:23:43 51°14.385 2°48.356 59.6 2.8 51 10.6
2006-05-17 08:23:48 51°14.387 2°48.361 59.6 2.8 52 10.6
2006-05-17 08:23:53 51°14.39 2°48.366 59.6 2.9 51 10.6
2006-05-17 08:23:57 51°14.392 2°48.37 59.5 2.9 52 10.6
2006-05-17 08:24:03 51°14.395 2°48.375 59.5 2.9 51 10.6
2006-05-17 08:24:08 51°14.397 2°48.381 59.4 2.9 51 10.6
2006-05-17 08:24:13 51°14.4 2°48.385 59.3 2.9 50 10.6
2006-05-17 08:24:18 51°14.402 2°48.39 59.1 2.9 51 10.7
2006-05-17 08:24:23 51°14.405 2°48.395 58.9 2.9 50 10.7
2006-05-17 08:24:28 51°14.407 2°48.4 58.9 2.9 49 10.7
2006-05-17 08:24:33 51°14.41 2°48.405 58.7 2.9 51 10.7
2006-05-17 08:24:38 51°14.412 2°48.41 58.7 2.9 48 10.6
2006-05-17 08:24:43 51°14.415 2°48.414 58.7 2.9 50 10.7
2006-05-17 08:24:48 51°14.418 2°48.419 58.7 2.9 52 10.7
2006-05-17 08:24:53 51°14.42 2°48.424 58.7 2.9 49 10.7
2006-05-17 08:24:58 51°14.423 2°48.429 58.8 2.9 51 10.7
2006-05-17 08:25:03 51°14.426 2°48.434 58.9 2.9 50 10.7
2006-05-17 08:25:09 51°14.429 2°48.44 59 2.9 50 10.7
2006-05-17 08:25:13 51°14.431 2°48.444 59.1 2.9 50 10.7
2006-05-17 08:25:17 51°14.433 2°48.448 59.4 2.9 51 10.7
2006-05-17 08:25:24 51°14.436 2°48.455 59.4 2.9 51 10.7
2006-05-17 08:25:28 51°14.438 2°48.459 59.4 2.9 53 10.7
2006-05-17 08:25:33 51°14.441 2°48.464 59.5 2.9 49 10.8
2006-05-17 08:25:38 51°14.443 2°48.469 59.7 2.9 51 10.7
2006-05-17 08:25:44 51°14.446 2°48.475 59.8 2.9 51 10.8
2006-05-17 08:25:48 51°14.448 2°48.479 60 2.9 53 10.8
2006-05-17 08:25:54 51°14.451 2°48.485 60.2 2.9 50 10.8
2006-05-17 08:25:58 51°14.453 2°48.489 60.2 2.9 52 10.7
2006-05-17 08:26:01 51°14.455 2°48.492 60.2 2.9 51 10.8
2006-05-17 08:26:07 51°14.458 2°48.498 60.3 2.9 53 10.8
2006-05-17 08:26:13 51°14.461 2°48.504 60.2 2.9 52 10.8
2006-05-17 08:26:18 51°14.463 2°48.509 60.2 2.9 51 10.7
2006-05-17 08:26:23 51°14.466 2°48.515 60.2 2.9 52 10.8
2006-05-17 08:26:28 51°14.468 2°48.52 60.3 2.9 53 10.8
2006-05-17 08:26:33 51°14.471 2°48.525 60.3 2.9 50 10.8
2006-05-17 08:26:38 51°14.473 2°48.53 60.2 2.9 53 10.7
2006-05-17 08:26:42 51°14.475 2°48.534 60.3 2.9 50 10.8
2006-05-17 08:26:48 51°14.478 2°48.54 60.3 2.9 54 10.8
2006-05-17 08:26:53 51°14.481 2°48.545 60.5 2.9 52 10.8
2006-05-17 08:26:58 51°14.483 2°48.55 60.7 2.9 53 10.8
2006-05-17 08:27:03 51°14.485 2°48.555 60.9 2.9 53 10.9
2006-05-17 08:27:08 51°14.487 2°48.56 61.2 2.9 53 10.8
2006-05-17 08:27:13 51°14.49 2°48.566 61.4 2.9 54 10.8
2006-05-17 08:27:18 51°14.492 2°48.571 61.5 2.9 54 10.9
2006-05-17 08:27:24 51°14.495 2°48.577 61.6 2.9 54 10.9
2006-05-17 08:27:28 51°14.497 2°48.581 61.8 2.9 54 10.9
2006-05-17 08:27:33 51°14.499 2°48.586 62.1 2.9 54 10.9
2006-05-17 08:27:38 51°14.502 2°48.592 62.3 2.9 56 11
2006-05-17 08:27:42 51°14.503 2°48.596 62.8 2.9 55 10.9
2006-05-17 08:27:48 51°14.506 2°48.602 63.1 2.9 57 10.9
2006-05-17 08:27:53 51°14.508 2°48.608 63.4 2.9 56 10.9
2006-05-17 08:27:58 51°14.51 2°48.613 63.8 2.9 58 10.9
2006-05-17 08:28:03 51°14.513 2°48.618 63.8 2.9 56 10.9
2006-05-17 08:28:08 51°14.515 2°48.624 64.2 2.9 59 10.9
2006-05-17 08:28:12 51°14.516 2°48.628 64.4 2.9 58 10.9
2006-05-17 08:28:18 51°14.519 2°48.634 64.5 2.9 58 10.9
2006-05-17 08:28:23 51°14.521 2°48.64 64.5 2.9 58 10.9
2006-05-17 08:28:28 51°14.523 2°48.645 64.8 2.9 59 10.9
2006-05-17 08:28:33 51°14.525 2°48.651 65.1 2.8 59 10.9
2006-05-17 08:28:38 51°14.527 2°48.656 65.2 2.9 61 10.9
2006-05-17 08:28:41 51°14.529 2°48.66 65.3 2.9 57 10.9
2006-05-17 08:28:48 51°14.531 2°48.667 65.5 2.9 63 10.9
2006-05-17 08:28:53 51°14.533 2°48.673 65.7 2.9 57 10.9
2006-05-17 08:28:58 51°14.535 2°48.679 65.8 2.9 65 10.9
2006-05-17 08:29:01 51°14.537 2°48.682 65.9 2.9 56 11
2006-05-17 08:29:07 51°14.539 2°48.688 65.8 2.9 65 10.9
2006-05-17 08:29:14 51°14.542 2°48.696 65.7 2.9 58 10.9
2006-05-17 08:29:18 51°14.543 2°48.7 65.5 2.9 63 10.9
2006-05-17 08:29:24 51°14.545 2°48.707 65.3 2.9 59 10.9
2006-05-17 08:29:27 51°14.547 2°48.71 65.3 2.9 61 10.9
2006-05-17 08:29:33 51°14.549 2°48.717 65.2 2.9 60 10.9
2006-05-17 08:29:38 51°14.551 2°48.722 64.8 2.9 57 10.9
2006-05-17 08:29:43 51°14.553 2°48.728 64.6 2.9 60 10.9
2006-05-17 08:29:48 51°14.555 2°48.733 64.3 2.9 57 10.9
2006-05-17 08:29:53 51°14.557 2°48.738 64.2 2.9 59 10.9
2006-05-17 08:29:58 51°14.559 2°48.743 64.1 2.8 57 11
2006-05-17 08:30:03 51°14.562 2°48.749 64 2.8 57 11
2006-05-17 08:30:08 51°14.564 2°48.754 63.9 2.9 57 11
2006-05-17 08:30:13 51°14.566 2°48.759 63.9 2.9 58 11
2006-05-17 08:30:18 51°14.568 2°48.764 63.9 2.9 55 10.9
2006-05-17 08:30:23 51°14.57 2°48.77 63.8 2.9 59 11
2006-05-17 08:30:28 51°14.572 2°48.775 63.9 2.9 57 11
2006-05-17 08:30:34 51°14.575 2°48.781 63.8 2.8 56 11
2006-05-17 08:30:38 51°14.577 2°48.786 63.8 2.9 57 11
2006-05-17 08:30:41 51°14.578 2°48.789 63.8 2.9 58 11
2006-05-17 08:30:47 51°14.58 2°48.795 63.9 2.9 57 11
2006-05-17 08:30:53 51°14.583 2°48.801 64.1 2.9 57 11
2006-05-17 08:30:58 51°14.585 2°48.807 64 2.8 58 11.1
2006-05-17 08:31:02 51°14.587 2°48.811 64.1 2.9 58 11
2006-05-17 08:31:08 51°14.589 2°48.817 64.1 2.9 58 11
2006-05-17 08:31:14 51°14.592 2°48.824 64.3 2.9 59 11
2006-05-17 08:31:18 51°14.594 2°48.828 64.4 2.9 56 11
2006-05-17 08:31:23 51°14.595 2°48.833 64.5 2.9 59 11.1
2006-05-17 08:31:28 51°14.598 2°48.839 64.5 2.9 55 11
2006-05-17 08:31:33 51°14.599 2°48.844 64.7 2.9 61 11
2006-05-17 08:31:38 51°14.602 2°48.849 64.8 2.9 58 11
2006-05-17 08:31:42 51°14.603 2°48.854 64.8 2.9 59 11.1
2006-05-17 08:31:48 51°14.606 2°48.86 64.8 2.9 59 11.1
2006-05-17 08:31:53 51°14.608 2°48.865 64.8 2.9 57 11
2006-05-17 08:31:58 51°14.61 2°48.87 64.8 2.9 57 11
2006-05-17 08:32:04 51°14.613 2°48.877 64.7 2.9 58 11.1
2006-05-17 08:32:08 51°14.614 2°48.881 64.7 2.9 58 11.1
2006-05-17 08:32:13 51°14.616 2°48.887 64.7 2.8 59 11
2006-05-17 08:32:18 51°14.618 2°48.892 64.6 2.9 57 11
2006-05-17 08:32:23 51°14.621 2°48.897 64.6 2.8 58 11.1
2006-05-17 08:32:29 51°14.623 2°48.904 64.6 2.9 56 11.1
2006-05-17 08:32:33 51°14.625 2°48.908 64.6 2.9 59 11.1
2006-05-17 08:32:38 51°14.627 2°48.913 64.6 2.9 59 11.1
2006-05-17 08:32:42 51°14.628 2°48.918 64.6 2.9 56 11.1
2006-05-17 08:32:49 51°14.631 2°48.925 64.6 2.9 60 11.1
2006-05-17 08:32:53 51°14.633 2°48.93 64.7 3 56 11.1
2006-05-17 08:32:58 51°14.635 2°48.935 64.7 3 59 11.1
2006-05-17 08:33:02 51°14.637 2°48.94 64.9 3 59 11.1
2006-05-17 08:33:08 51°14.64 2°48.947 64.8 3 60 11
2006-05-17 08:33:14 51°14.643 2°48.954 65 3.1 57 11
2006-05-17 08:33:18 51°14.644 2°48.959 65.1 3.1 61 11.1
2006-05-17 08:33:23 51°14.647 2°48.964 65.2 3.1 58 11.1
2006-05-17 08:33:28 51°14.648 2°48.97 65.1 3.1 62 11.1
2006-05-17 08:33:33 51°14.651 2°48.976 65.2 3.1 58 11.1
2006-05-17 08:33:38 51°14.653 2°48.982 65.1 3.1 61 11.1
2006-05-17 08:33:43 51°14.655 2°48.988 65 3.1 58 11.1
2006-05-17 08:33:48 51°14.658 2°48.994 65 3.1 60 11.1
2006-05-17 08:33:53 51°14.66 2°49 64.8 3.2 58 11.1
2006-05-17 08:33:58 51°14.662 2°49.006 64.5 3.2 60 11.1
2006-05-17 08:34:04 51°14.665 2°49.014 64.5 3.2 59 11.1
2006-05-17 08:34:08 51°14.667 2°49.018 64.4 3.1 58 11.1
2006-05-17 08:34:13 51°14.669 2°49.024 64.2 3.2 59 11.2
2006-05-17 08:34:18 51°14.672 2°49.03 64.2 3.2 58 11.1
2006-05-17 08:34:23 51°14.674 2°49.036 64.3 3.2 59 11.2
2006-05-17 08:34:28 51°14.676 2°49.042 64.5 3.2 58 11.1
2006-05-17 08:34:33 51°14.678 2°49.049 64.5 3.2 60 11.2
2006-05-17 08:34:38 51°14.681 2°49.055 64.8 3.2 60 11.2
2006-05-17 08:34:43 51°14.683 2°49.061 65.2 3.2 61 11.2
2006-05-17 08:34:49 51°14.685 2°49.068 65.3 3.2 60 11.1
2006-05-17 08:34:53 51°14.687 2°49.073 65.7 3.2 60 11.1
2006-05-17 08:34:57 51°14.689 2°49.078 65.9 3.2 61 11.1
2006-05-17 08:35:04 51°14.692 2°49.086 66 3.2 61 11.2
2006-05-17 08:35:08 51°14.694 2°49.091 66.2 3.2 62 11.2
2006-05-17 08:35:14 51°14.696 2°49.099 66.3 3.2 61 11.2
2006-05-17 08:35:19 51°14.698 2°49.105 66.6 3.2 61 11.2
2006-05-17 08:35:23 51°14.7 2°49.11 66.7 3.2 61 11.2
2006-05-17 08:35:28 51°14.702 2°49.116 66.7 3.2 61 11.2
2006-05-17 08:35:33 51°14.704 2°49.122 66.7 3.2 63 11.2
2006-05-17 08:35:38 51°14.706 2°49.128 66.8 3.1 61 11.2
2006-05-17 08:35:43 51°14.709 2°49.135 66.8 3.2 63 11.2
2006-05-17 08:35:48 51°14.711 2°49.141 66.8 3.2 61 11.3
2006-05-17 08:35:54 51°14.713 2°49.148 66.8 3.2 63 11.2
2006-05-17 08:35:58 51°14.715 2°49.153 66.8 3.2 61 11.2
2006-05-17 08:36:02 51°14.717 2°49.158 66.9 3.2 63 11.2
2006-05-17 08:36:08 51°14.719 2°49.166 67.1 3.2 61 11.1
2006-05-17 08:36:13 51°14.721 2°49.172 66.9 3.2 63 11.1
2006-05-17 08:36:18 51°14.723 2°49.178 66.9 3.2 61 11.2
2006-05-17 08:36:22 51°14.725 2°49.183 66.8 3.2 64 11.2
2006-05-17 08:36:27 51°14.727 2°49.189 66.8 3.2 61 11.2
2006-05-17 08:36:32 51°14.729 2°49.196 66.7 3.2 64 11.2
2006-05-17 08:36:37 51°14.731 2°49.202 66.7 3.2 60 11.2
2006-05-17 08:36:44 51°14.734 2°49.21 66.5 3.2 64 11.2
2006-05-17 08:36:48 51°14.736 2°49.215 66.5 3.2 59 11.2
2006-05-17 08:36:53 51°14.738 2°49.221 66.4 3.2 63 11.2
2006-05-17 08:36:58 51°14.74 2°49.228 66.4 3.2 61 11.3
2006-05-17 08:37:03 51°14.742 2°49.234 66.3 3.2 62 11.3
2006-05-17 08:37:07 51°14.744 2°49.239 66.3 3.2 61 11.3
2006-05-17 08:37:14 51°14.747 2°49.248 66.3 3.2 62 11.3
2006-05-17 08:37:17 51°14.748 2°49.251 66.4 3.2 61 11.3
2006-05-17 08:37:23 51°14.751 2°49.259 66.4 3.2 61 11.3
2006-05-17 08:37:28 51°14.753 2°49.265 66.4 3.2 60 11.3
2006-05-17 08:37:34 51°14.755 2°49.272 66.4 3.2 62 11.3
2006-05-17 08:37:39 51°14.757 2°49.279 66.5 3.2 62 11.2
2006-05-17 08:37:43 51°14.759 2°49.284 66.5 3.2 61 11.2
2006-05-17 08:37:48 51°14.761 2°49.29 66.5 3.2 62 11.2
2006-05-17 08:37:54 51°14.764 2°49.297 66.5 3.2 61 11.2
2006-05-17 08:37:57 51°14.765 2°49.301 66.4 3.2 63 11.3
2006-05-17 08:38:02 51°14.767 2°49.307 66.5 3.2 61 11.2
2006-05-17 08:38:08 51°14.77 2°49.314 66.5 3.2 62 11.3
2006-05-17 08:38:13 51°14.772 2°49.32 66.5 3.2 61 11.2
2006-05-17 08:38:17 51°14.774 2°49.326 66.5 3.2 62 11.3
2006-05-17 08:38:24 51°14.776 2°49.334 66.5 3.2 62 11.2
2006-05-17 08:38:28 51°14.778 2°49.339 66.5 3.2 62 11.3
2006-05-17 08:38:33 51°14.78 2°49.345 66.5 3.2 62 11.3
2006-05-17 08:38:37 51°14.782 2°49.35 66.5 3.2 62 11.3
2006-05-17 08:38:44 51°14.785 2°49.359 66.5 3.2 61 11.3
2006-05-17 08:38:48 51°14.787 2°49.364 66.5 3.2 60 11.2
2006-05-17 08:38:53 51°14.789 2°49.371 66.5 3.2 63 11.3
2006-05-17 08:38:58 51°14.791 2°49.377 66.4 3.2 60 11.2
2006-05-17 08:39:04 51°14.793 2°49.384 66.3 3.1 60 11.3
2006-05-17 08:39:07 51°14.794 2°49.388 66.3 3.1 62 11.3
2006-05-17 08:39:13 51°14.797 2°49.395 66.3 3.1 61 11.2
2006-05-17 08:39:18 51°14.799 2°49.401 66.2 3 63 11.2
2006-05-17 08:39:24 51°14.801 2°49.408 66.2 3 60 11.3
2006-05-17 08:39:28 51°14.803 2°49.413 66.3 3 62 11.2
2006-05-17 08:39:33 51°14.805 2°49.419 66.4 2.9 59 11.3
2006-05-17 08:39:38 51°14.807 2°49.425 66.5 3 64 11.3
2006-05-17 08:39:43 51°14.809 2°49.43 66.6 3 59 11.3
2006-05-17 08:39:47 51°14.81 2°49.435 66.6 2.9 63 11.3
2006-05-17 08:39:54 51°14.813 2°49.443 66.7 2.9 60 11.3
2006-05-17 08:39:58 51°14.814 2°49.448 66.8 2.9 64 11.3
2006-05-17 08:40:03 51°14.816 2°49.453 66.8 2.9 61 11.3
2006-05-17 08:40:08 51°14.818 2°49.459 67.1 2.9 65 11.3
2006-05-17 08:40:14 51°14.82 2°49.466 67.2 2.9 62 11.3
2006-05-17 08:40:18 51°14.822 2°49.47 67.3 2.9 64 11.3
2006-05-17 08:40:22 51°14.823 2°49.475 67.4 2.9 64 11.3
2006-05-17 08:40:28 51°14.825 2°49.482 67.4 2.8 63 11.3
2006-05-17 08:40:33 51°14.827 2°49.487 67.4 2.9 62 11.3
2006-05-17 08:40:38 51°14.829 2°49.493 67.4 2.8 63 11.3
2006-05-17 08:40:43 51°14.831 2°49.499 67.4 2.9 61 11.3
2006-05-17 08:40:48 51°14.832 2°49.504 67.3 2.8 64 11.3
2006-05-17 08:40:54 51°14.834 2°49.511 67.2 2.8 61 11.3
2006-05-17 08:40:57 51°14.835 2°49.514 67 2.8 64 11.3